sensor_id;sensor_type;location;lat;lon;timestamp;P1;durP1;ratioP1;P2;durP2;ratioP2
7557;SDS011;3820;51.098;13.716;2022-08-11T00:01:08;1.85;;;1.13;;
7557;SDS011;3820;51.098;13.716;2022-08-11T00:03:55;1.33;;;1.20;;
7557;SDS011;3820;51.098;13.716;2022-08-11T00:06:23;1.83;;;1.40;;
7557;SDS011;3820;51.098;13.716;2022-08-11T00:08:51;1.48;;;0.95;;
7557;SDS011;3820;51.098;13.716;2022-08-11T00:11:19;4.60;;;1.50;;
7557;SDS011;3820;51.098;13.716;2022-08-11T00:13:52;1.30;;;1.05;;
7557;SDS011;3820;51.098;13.716;2022-08-11T00:16:20;1.05;;;0.93;;
7557;SDS011;3820;51.098;13.716;2022-08-11T00:18:50;1.77;;;1.30;;
7557;SDS011;3820;51.098;13.716;2022-08-11T00:21:18;1.05;;;0.73;;
7557;SDS011;3820;51.098;13.716;2022-08-11T00:24:06;1.77;;;1.10;;
7557;SDS011;3820;51.098;13.716;2022-08-11T00:26:33;1.88;;;1.40;;
7557;SDS011;3820;51.098;13.716;2022-08-11T00:29:08;1.30;;;1.20;;
7557;SDS011;3820;51.098;13.716;2022-08-11T00:31:35;1.73;;;1.40;;
7557;SDS011;3820;51.098;13.716;2022-08-11T00:34:02;1.35;;;1.25;;
7557;SDS011;3820;51.098;13.716;2022-08-11T00:36:42;1.55;;;1.35;;
7557;SDS011;3820;51.098;13.716;2022-08-11T00:39:13;1.52;;;1.38;;
7557;SDS011;3820;51.098;13.716;2022-08-11T00:41:59;1.00;;;1.00;;
7557;SDS011;3820;51.098;13.716;2022-08-11T00:47:06;1.23;;;1.13;;
7557;SDS011;3820;51.098;13.716;2022-08-11T01:07:07;1.23;;;1.08;;
7557;SDS011;3820;51.098;13.716;2022-08-11T01:10:13;1.38;;;1.00;;
7557;SDS011;3820;51.098;13.716;2022-08-11T01:13:03;3.42;;;1.50;;
7557;SDS011;3820;51.098;13.716;2022-08-11T01:15:42;3.92;;;1.20;;
7557;SDS011;3820;51.098;13.716;2022-08-11T01:27:43;0.70;;;0.70;;
7557;SDS011;3820;51.098;13.716;2022-08-11T01:30:42;1.30;;;0.90;;
7557;SDS011;3820;51.098;13.716;2022-08-11T01:39:20;1.15;;;1.13;;
7557;SDS011;3820;51.098;13.716;2022-08-11T01:51:07;1.65;;;1.00;;
7557;SDS011;3820;51.098;13.716;2022-08-11T01:59:33;1.75;;;1.23;;
7557;SDS011;3820;51.098;13.716;2022-08-11T02:02:05;1.83;;;1.35;;
7557;SDS011;3820;51.098;13.716;2022-08-11T02:05:16;0.88;;;0.82;;
7557;SDS011;3820;51.098;13.716;2022-08-11T02:08:53;1.92;;;1.27;;
7557;SDS011;3820;51.098;13.716;2022-08-11T02:14:17;1.40;;;1.30;;
7557;SDS011;3820;51.098;13.716;2022-08-11T02:17:13;1.30;;;1.20;;
7557;SDS011;3820;51.098;13.716;2022-08-11T02:19:54;1.65;;;1.35;;
7557;SDS011;3820;51.098;13.716;2022-08-11T02:22:51;1.02;;;0.93;;
7557;SDS011;3820;51.098;13.716;2022-08-11T02:28:41;1.30;;;1.20;;
7557;SDS011;3820;51.098;13.716;2022-08-11T02:31:26;1.38;;;0.93;;
7557;SDS011;3820;51.098;13.716;2022-08-11T02:43:08;1.25;;;1.15;;
7557;SDS011;3820;51.098;13.716;2022-08-11T02:48:59;2.10;;;1.33;;
7557;SDS011;3820;51.098;13.716;2022-08-11T02:51:56;1.40;;;1.30;;
7557;SDS011;3820;51.098;13.716;2022-08-11T02:54:43;1.80;;;1.27;;
7557;SDS011;3820;51.098;13.716;2022-08-11T02:57:29;1.52;;;1.27;;
7557;SDS011;3820;51.098;13.716;2022-08-11T03:00:03;1.33;;;1.23;;
7557;SDS011;3820;51.098;13.716;2022-08-11T03:03:00;1.42;;;1.15;;
7557;SDS011;3820;51.098;13.716;2022-08-11T03:17:24;1.70;;;1.27;;
7557;SDS011;3820;51.098;13.716;2022-08-11T03:23:17;1.48;;;1.38;;
7557;SDS011;3820;51.098;13.716;2022-08-11T03:31:54;2.00;;;1.55;;
7557;SDS011;3820;51.098;13.716;2022-08-11T03:34:27;1.42;;;1.33;;
7557;SDS011;3820;51.098;13.716;2022-08-11T03:40:18;1.73;;;1.10;;
7557;SDS011;3820;51.098;13.716;2022-08-11T03:46:33;1.58;;;1.48;;
7557;SDS011;3820;51.098;13.716;2022-08-11T03:49:07;1.00;;;1.00;;
7557;SDS011;3820;51.098;13.716;2022-08-11T03:52:07;3.53;;;1.88;;
7557;SDS011;3820;51.098;13.716;2022-08-11T03:54:49;1.50;;;1.27;;
7557;SDS011;3820;51.098;13.716;2022-08-11T04:00:29;1.42;;;1.33;;
7557;SDS011;3820;51.098;13.716;2022-08-11T04:12:03;3.13;;;1.73;;
7557;SDS011;3820;51.098;13.716;2022-08-11T04:21:01;1.73;;;1.63;;
7557;SDS011;3820;51.098;13.716;2022-08-11T04:30:16;1.75;;;1.35;;
7557;SDS011;3820;51.098;13.716;2022-08-11T04:35:28;2.45;;;2.15;;
7557;SDS011;3820;51.098;13.716;2022-08-11T04:40:55;1.77;;;1.20;;
7557;SDS011;3820;51.098;13.716;2022-08-11T04:46:49;1.52;;;1.08;;
7557;SDS011;3820;51.098;13.716;2022-08-11T04:52:59;2.72;;;2.33;;
7557;SDS011;3820;51.098;13.716;2022-08-11T05:10:58;4.05;;;1.75;;
7557;SDS011;3820;51.098;13.716;2022-08-11T05:13:36;2.85;;;1.83;;
7557;SDS011;3820;51.098;13.716;2022-08-11T05:16:49;1.70;;;1.60;;
7557;SDS011;3820;51.098;13.716;2022-08-11T05:19:37;1.55;;;1.45;;
7557;SDS011;3820;51.098;13.716;2022-08-11T05:22:25;1.65;;;1.33;;
7557;SDS011;3820;51.098;13.716;2022-08-11T05:25:16;4.68;;;1.73;;
7557;SDS011;3820;51.098;13.716;2022-08-11T05:28:29;1.15;;;1.08;;
7557;SDS011;3820;51.098;13.716;2022-08-11T05:31:17;1.42;;;1.33;;
7557;SDS011;3820;51.098;13.716;2022-08-11T05:34:09;1.58;;;1.13;;
7557;SDS011;3820;51.098;13.716;2022-08-11T05:37:04;2.20;;;1.25;;
7557;SDS011;3820;51.098;13.716;2022-08-11T05:39:53;1.77;;;1.55;;
7557;SDS011;3820;51.098;13.716;2022-08-11T05:42:42;2.35;;;2.15;;
7557;SDS011;3820;51.098;13.716;2022-08-11T05:45:33;1.20;;;1.20;;
7557;SDS011;3820;51.098;13.716;2022-08-11T05:48:31;2.33;;;2.08;;
7557;SDS011;3820;51.098;13.716;2022-08-11T05:51:17;1.45;;;1.35;;
7557;SDS011;3820;51.098;13.716;2022-08-11T05:54:03;1.20;;;1.10;;
7557;SDS011;3820;51.098;13.716;2022-08-11T05:56:56;1.42;;;1.27;;
7557;SDS011;3820;51.098;13.716;2022-08-11T05:59:24;2.67;;;2.25;;
7557;SDS011;3820;51.098;13.716;2022-08-11T06:01:57;2.40;;;1.75;;
7557;SDS011;3820;51.098;13.716;2022-08-11T06:04:26;2.25;;;1.80;;
7557;SDS011;3820;51.098;13.716;2022-08-11T06:06:55;1.90;;;1.35;;
7557;SDS011;3820;51.098;13.716;2022-08-11T06:12:17;1.10;;;1.00;;
7557;SDS011;3820;51.098;13.716;2022-08-11T06:14:46;1.98;;;1.83;;
7557;SDS011;3820;51.098;13.716;2022-08-11T06:17:22;1.38;;;1.15;;
7557;SDS011;3820;51.098;13.716;2022-08-11T06:19:50;1.15;;;1.05;;
7557;SDS011;3820;51.098;13.716;2022-08-11T06:22:32;3.05;;;2.05;;
7557;SDS011;3820;51.098;13.716;2022-08-11T06:24:59;1.73;;;1.40;;
7557;SDS011;3820;51.098;13.716;2022-08-11T06:27:29;1.35;;;1.15;;
7557;SDS011;3820;51.098;13.716;2022-08-11T06:29:57;1.27;;;1.17;;
7557;SDS011;3820;51.098;13.716;2022-08-11T06:32:28;1.10;;;1.00;;
7557;SDS011;3820;51.098;13.716;2022-08-11T06:35:02;4.20;;;1.88;;
7557;SDS011;3820;51.098;13.716;2022-08-11T06:43:17;1.58;;;1.25;;
7557;SDS011;3820;51.098;13.716;2022-08-11T06:45:56;1.10;;;1.02;;
7557;SDS011;3820;51.098;13.716;2022-08-11T06:48:29;1.20;;;1.10;;
7557;SDS011;3820;51.098;13.716;2022-08-11T06:51:02;2.25;;;1.50;;
7557;SDS011;3820;51.098;13.716;2022-08-11T06:56:30;1.58;;;1.20;;
7557;SDS011;3820;51.098;13.716;2022-08-11T06:59:36;1.98;;;1.20;;
7557;SDS011;3820;51.098;13.716;2022-08-11T07:02:26;3.50;;;1.75;;
7557;SDS011;3820;51.098;13.716;2022-08-11T07:14:07;2.17;;;1.52;;
7557;SDS011;3820;51.098;13.716;2022-08-11T07:16:59;3.33;;;1.23;;
7557;SDS011;3820;51.098;13.716;2022-08-11T07:19:27;1.42;;;1.20;;
7557;SDS011;3820;51.098;13.716;2022-08-11T07:22:13;1.42;;;1.05;;
7557;SDS011;3820;51.098;13.716;2022-08-11T07:25:12;5.38;;;1.23;;
7557;SDS011;3820;51.098;13.716;2022-08-11T07:28:03;3.58;;;1.98;;
7557;SDS011;3820;51.098;13.716;2022-08-11T07:30:57;1.25;;;1.15;;
7557;SDS011;3820;51.098;13.716;2022-08-11T07:33:28;1.75;;;1.30;;
7557;SDS011;3820;51.098;13.716;2022-08-11T07:36:31;0.90;;;0.82;;
7557;SDS011;3820;51.098;13.716;2022-08-11T07:39:00;1.35;;;1.05;;
7557;SDS011;3820;51.098;13.716;2022-08-11T07:41:27;1.85;;;1.25;;
7557;SDS011;3820;51.098;13.716;2022-08-11T07:43:58;2.83;;;1.33;;
7557;SDS011;3820;51.098;13.716;2022-08-11T07:46:44;2.22;;;1.10;;
7557;SDS011;3820;51.098;13.716;2022-08-11T07:49:32;2.05;;;1.50;;
7557;SDS011;3820;51.098;13.716;2022-08-11T07:52:19;1.67;;;1.45;;
7557;SDS011;3820;51.098;13.716;2022-08-11T07:55:00;1.27;;;1.08;;
7557;SDS011;3820;51.098;13.716;2022-08-11T07:57:30;1.10;;;1.00;;
7557;SDS011;3820;51.098;13.716;2022-08-11T08:00:37;1.40;;;1.05;;
7557;SDS011;3820;51.098;13.716;2022-08-11T08:03:36;1.30;;;1.10;;
7557;SDS011;3820;51.098;13.716;2022-08-11T08:06:21;3.33;;;1.30;;
7557;SDS011;3820;51.098;13.716;2022-08-11T08:09:06;1.15;;;1.00;;
7557;SDS011;3820;51.098;13.716;2022-08-11T08:11:53;1.30;;;1.00;;
7557;SDS011;3820;51.098;13.716;2022-08-11T08:14:39;1.40;;;0.90;;
7557;SDS011;3820;51.098;13.716;2022-08-11T08:17:26;1.10;;;1.00;;
7557;SDS011;3820;51.098;13.716;2022-08-11T08:20:34;1.85;;;1.08;;
7557;SDS011;3820;51.098;13.716;2022-08-11T08:23:03;1.65;;;0.90;;
7557;SDS011;3820;51.098;13.716;2022-08-11T08:25:31;2.22;;;1.27;;
7557;SDS011;3820;51.098;13.716;2022-08-11T08:28:00;1.27;;;1.17;;
7557;SDS011;3820;51.098;13.716;2022-08-11T08:30:28;0.75;;;0.75;;
7557;SDS011;3820;51.098;13.716;2022-08-11T08:33:13;1.80;;;1.05;;
7557;SDS011;3820;51.098;13.716;2022-08-11T08:35:45;1.08;;;0.80;;
7557;SDS011;3820;51.098;13.716;2022-08-11T08:38:21;0.98;;;0.88;;
7557;SDS011;3820;51.098;13.716;2022-08-11T08:40:49;1.48;;;1.00;;
7557;SDS011;3820;51.098;13.716;2022-08-11T08:43:21;1.70;;;0.98;;
7557;SDS011;3820;51.098;13.716;2022-08-11T08:45:48;1.25;;;0.90;;
7557;SDS011;3820;51.098;13.716;2022-08-11T08:48:14;0.98;;;0.80;;
7557;SDS011;3820;51.098;13.716;2022-08-11T08:50:52;1.05;;;0.57;;
7557;SDS011;3820;51.098;13.716;2022-08-11T08:53:43;1.10;;;0.75;;
7557;SDS011;3820;51.098;13.716;2022-08-11T08:56:19;1.25;;;0.80;;
7557;SDS011;3820;51.098;13.716;2022-08-11T08:58:50;6.13;;;1.13;;
7557;SDS011;3820;51.098;13.716;2022-08-11T09:01:17;1.10;;;1.00;;
7557;SDS011;3820;51.098;13.716;2022-08-11T09:03:46;1.30;;;1.02;;
7557;SDS011;3820;51.098;13.716;2022-08-11T09:06:32;1.20;;;0.82;;
7557;SDS011;3820;51.098;13.716;2022-08-11T09:09:00;0.77;;;0.57;;
7557;SDS011;3820;51.098;13.716;2022-08-11T09:11:26;1.20;;;0.85;;
7557;SDS011;3820;51.098;13.716;2022-08-11T09:14:12;0.82;;;0.70;;
7557;SDS011;3820;51.098;13.716;2022-08-11T09:16:40;0.88;;;0.80;;
7557;SDS011;3820;51.098;13.716;2022-08-11T09:19:09;0.70;;;0.63;;
7557;SDS011;3820;51.098;13.716;2022-08-11T09:21:39;1.30;;;0.55;;
7557;SDS011;3820;51.098;13.716;2022-08-11T09:24:15;1.65;;;0.90;;
7557;SDS011;3820;51.098;13.716;2022-08-11T09:27:05;1.10;;;0.90;;
7557;SDS011;3820;51.098;13.716;2022-08-11T09:29:32;1.45;;;0.80;;
7557;SDS011;3820;51.098;13.716;2022-08-11T09:31:59;0.70;;;0.60;;
7557;SDS011;3820;51.098;13.716;2022-08-11T09:34:26;0.88;;;0.75;;
7557;SDS011;3820;51.098;13.716;2022-08-11T09:36:53;0.77;;;0.60;;
7557;SDS011;3820;51.098;13.716;2022-08-11T09:39:54;1.92;;;1.15;;
7557;SDS011;3820;51.098;13.716;2022-08-11T09:42:40;1.00;;;0.80;;
7557;SDS011;3820;51.098;13.716;2022-08-11T09:45:26;1.20;;;0.73;;
7557;SDS011;3820;51.098;13.716;2022-08-11T09:48:05;3.83;;;0.90;;
7557;SDS011;3820;51.098;13.716;2022-08-11T09:50:33;0.75;;;0.65;;
7557;SDS011;3820;51.098;13.716;2022-08-11T09:52:59;0.77;;;0.77;;
7557;SDS011;3820;51.098;13.716;2022-08-11T09:55:51;1.55;;;0.90;;
7557;SDS011;3820;51.098;13.716;2022-08-11T09:58:18;0.82;;;0.77;;
7557;SDS011;3820;51.098;13.716;2022-08-11T10:01:08;1.08;;;0.80;;
7557;SDS011;3820;51.098;13.716;2022-08-11T10:03:57;1.05;;;0.80;;
7557;SDS011;3820;51.098;13.716;2022-08-11T10:06:27;0.57;;;0.57;;
7557;SDS011;3820;51.098;13.716;2022-08-11T10:09:16;1.05;;;0.80;;
7557;SDS011;3820;51.098;13.716;2022-08-11T10:11:45;1.23;;;0.65;;
7557;SDS011;3820;51.098;13.716;2022-08-11T10:14:23;1.10;;;0.90;;
7557;SDS011;3820;51.098;13.716;2022-08-11T10:17:10;1.95;;;1.17;;
7557;SDS011;3820;51.098;13.716;2022-08-11T10:19:38;0.63;;;0.63;;
7557;SDS011;3820;51.098;13.716;2022-08-11T10:22:07;1.02;;;0.75;;
7557;SDS011;3820;51.098;13.716;2022-08-11T10:24:53;3.22;;;1.10;;
7557;SDS011;3820;51.098;13.716;2022-08-11T10:27:45;0.82;;;0.68;;
7557;SDS011;3820;51.098;13.716;2022-08-11T10:30:32;1.40;;;1.00;;
7557;SDS011;3820;51.098;13.716;2022-08-11T10:33:17;1.38;;;0.80;;
7557;SDS011;3820;51.098;13.716;2022-08-11T10:36:23;1.00;;;0.60;;
7557;SDS011;3820;51.098;13.716;2022-08-11T10:38:49;1.20;;;0.75;;
7557;SDS011;3820;51.098;13.716;2022-08-11T10:41:18;0.80;;;0.57;;
7557;SDS011;3820;51.098;13.716;2022-08-11T10:44:23;1.92;;;0.77;;
7557;SDS011;3820;51.098;13.716;2022-08-11T10:46:50;0.77;;;0.68;;
7557;SDS011;3820;51.098;13.716;2022-08-11T10:49:35;1.00;;;0.70;;
7557;SDS011;3820;51.098;13.716;2022-08-11T10:52:02;1.60;;;1.00;;
7557;SDS011;3820;51.098;13.716;2022-08-11T10:54:48;1.00;;;0.70;;
7557;SDS011;3820;51.098;13.716;2022-08-11T10:57:33;0.98;;;0.70;;
7557;SDS011;3820;51.098;13.716;2022-08-11T11:00:30;0.93;;;0.65;;
7557;SDS011;3820;51.098;13.716;2022-08-11T11:02:57;0.80;;;0.60;;
7557;SDS011;3820;51.098;13.716;2022-08-11T11:05:45;1.35;;;0.80;;
7557;SDS011;3820;51.098;13.716;2022-08-11T11:08:32;0.57;;;0.57;;
7557;SDS011;3820;51.098;13.716;2022-08-11T11:11:18;0.70;;;0.43;;
7557;SDS011;3820;51.098;13.716;2022-08-11T11:13:48;0.75;;;0.60;;
7557;SDS011;3820;51.098;13.716;2022-08-11T11:16:35;0.93;;;0.60;;
7557;SDS011;3820;51.098;13.716;2022-08-11T11:19:21;0.88;;;0.70;;
7557;SDS011;3820;51.098;13.716;2022-08-11T11:21:51;0.60;;;0.55;;
7557;SDS011;3820;51.098;13.716;2022-08-11T11:30:22;0.55;;;0.45;;
7557;SDS011;3820;51.098;13.716;2022-08-11T11:33:07;1.70;;;0.38;;
7557;SDS011;3820;51.098;13.716;2022-08-11T11:35:49;0.55;;;0.43;;
7557;SDS011;3820;51.098;13.716;2022-08-11T11:38:24;1.80;;;0.75;;
7557;SDS011;3820;51.098;13.716;2022-08-11T11:40:50;0.60;;;0.60;;
7557;SDS011;3820;51.098;13.716;2022-08-11T11:43:37;1.00;;;0.60;;
7557;SDS011;3820;51.098;13.716;2022-08-11T11:46:05;0.60;;;0.40;;
7557;SDS011;3820;51.098;13.716;2022-08-11T11:48:34;0.82;;;0.68;;
7557;SDS011;3820;51.098;13.716;2022-08-11T11:51:02;0.75;;;0.50;;
7557;SDS011;3820;51.098;13.716;2022-08-11T11:53:28;1.33;;;0.50;;
7557;SDS011;3820;51.098;13.716;2022-08-11T11:55:55;0.45;;;0.45;;
7557;SDS011;3820;51.098;13.716;2022-08-11T11:58:25;1.05;;;0.73;;
7557;SDS011;3820;51.098;13.716;2022-08-11T12:01:11;0.88;;;0.32;;
7557;SDS011;3820;51.098;13.716;2022-08-11T12:03:45;0.80;;;0.70;;
7557;SDS011;3820;51.098;13.716;2022-08-11T12:06:13;1.00;;;0.50;;
7557;SDS011;3820;51.098;13.716;2022-08-11T12:08:40;1.15;;;0.73;;
7557;SDS011;3820;51.098;13.716;2022-08-11T12:11:10;0.32;;;0.30;;
7557;SDS011;3820;51.098;13.716;2022-08-11T12:13:57;0.82;;;0.45;;
7557;SDS011;3820;51.098;13.716;2022-08-11T12:16:27;0.70;;;0.68;;
7557;SDS011;3820;51.098;13.716;2022-08-11T12:19:22;1.05;;;0.80;;
7557;SDS011;3820;51.098;13.716;2022-08-11T12:21:49;0.98;;;0.55;;
7557;SDS011;3820;51.098;13.716;2022-08-11T12:24:35;0.32;;;0.30;;
7557;SDS011;3820;51.098;13.716;2022-08-11T12:27:21;0.40;;;0.30;;
7557;SDS011;3820;51.098;13.716;2022-08-11T12:29:52;0.75;;;0.40;;
7557;SDS011;3820;51.098;13.716;2022-08-11T12:32:22;1.33;;;0.98;;
7557;SDS011;3820;51.098;13.716;2022-08-11T12:34:50;0.85;;;0.70;;
7557;SDS011;3820;51.098;13.716;2022-08-11T12:37:19;0.52;;;0.52;;
7557;SDS011;3820;51.098;13.716;2022-08-11T12:39:49;0.52;;;0.40;;
7557;SDS011;3820;51.098;13.716;2022-08-11T12:42:57;0.30;;;0.30;;
7557;SDS011;3820;51.098;13.716;2022-08-11T12:45:48;0.22;;;0.22;;
7557;SDS011;3820;51.098;13.716;2022-08-11T12:48:19;0.63;;;0.40;;
7557;SDS011;3820;51.098;13.716;2022-08-11T12:51:24;1.10;;;0.60;;
7557;SDS011;3820;51.098;13.716;2022-08-11T12:54:39;0.82;;;0.43;;
7557;SDS011;3820;51.098;13.716;2022-08-11T12:57:17;0.57;;;0.40;;
7557;SDS011;3820;51.098;13.716;2022-08-11T13:00:15;0.82;;;0.30;;
7557;SDS011;3820;51.098;13.716;2022-08-11T13:03:01;0.90;;;0.60;;
7557;SDS011;3820;51.098;13.716;2022-08-11T13:05:47;0.85;;;0.65;;
7557;SDS011;3820;51.098;13.716;2022-08-11T13:08:18;0.40;;;0.40;;
7557;SDS011;3820;51.098;13.716;2022-08-11T13:10:45;0.47;;;0.40;;
7557;SDS011;3820;51.098;13.716;2022-08-11T13:13:31;0.70;;;0.60;;
7557;SDS011;3820;51.098;13.716;2022-08-11T13:16:17;0.35;;;0.35;;
7557;SDS011;3820;51.098;13.716;2022-08-11T13:18:46;0.50;;;0.50;;
7557;SDS011;3820;51.098;13.716;2022-08-11T13:21:12;0.30;;;0.30;;
7557;SDS011;3820;51.098;13.716;2022-08-11T13:23:46;0.47;;;0.35;;
7557;SDS011;3820;51.098;13.716;2022-08-11T13:26:29;0.57;;;0.30;;
7557;SDS011;3820;51.098;13.716;2022-08-11T13:29:14;10.00;;;1.05;;
7557;SDS011;3820;51.098;13.716;2022-08-11T13:31:42;0.43;;;0.40;;
7557;SDS011;3820;51.098;13.716;2022-08-11T13:34:09;0.63;;;0.47;;
7557;SDS011;3820;51.098;13.716;2022-08-11T13:36:36;0.38;;;0.38;;
7557;SDS011;3820;51.098;13.716;2022-08-11T13:39:03;0.57;;;0.52;;
7557;SDS011;3820;51.098;13.716;2022-08-11T13:41:30;1.65;;;0.55;;
7557;SDS011;3820;51.098;13.716;2022-08-11T13:44:05;0.43;;;0.43;;
7557;SDS011;3820;51.098;13.716;2022-08-11T13:46:32;0.40;;;0.40;;
7557;SDS011;3820;51.098;13.716;2022-08-11T13:49:00;1.08;;;0.52;;
7557;SDS011;3820;51.098;13.716;2022-08-11T13:51:27;0.75;;;0.50;;
7557;SDS011;3820;51.098;13.716;2022-08-11T13:54:06;0.77;;;0.52;;
7557;SDS011;3820;51.098;13.716;2022-08-11T13:56:36;1.55;;;0.95;;
7557;SDS011;3820;51.098;13.716;2022-08-11T13:59:07;0.43;;;0.35;;
7557;SDS011;3820;51.098;13.716;2022-08-11T14:01:36;0.47;;;0.47;;
7557;SDS011;3820;51.098;13.716;2022-08-11T14:04:32;0.60;;;0.60;;
7557;SDS011;3820;51.098;13.716;2022-08-11T14:07:05;0.40;;;0.40;;
7557;SDS011;3820;51.098;13.716;2022-08-11T14:09:38;0.57;;;0.50;;
7557;SDS011;3820;51.098;13.716;2022-08-11T14:12:08;2.33;;;0.68;;
7557;SDS011;3820;51.098;13.716;2022-08-11T14:15:05;0.88;;;0.50;;
7557;SDS011;3820;51.098;13.716;2022-08-11T14:17:36;0.30;;;0.30;;
7557;SDS011;3820;51.098;13.716;2022-08-11T14:20:13;0.85;;;0.68;;
7557;SDS011;3820;51.098;13.716;2022-08-11T14:23:02;0.40;;;0.40;;
7557;SDS011;3820;51.098;13.716;2022-08-11T14:25:29;0.50;;;0.50;;
7557;SDS011;3820;51.098;13.716;2022-08-11T14:28:16;0.43;;;0.40;;
7557;SDS011;3820;51.098;13.716;2022-08-11T14:31:01;1.00;;;0.70;;
7557;SDS011;3820;51.098;13.716;2022-08-11T14:33:30;4.38;;;1.15;;
7557;SDS011;3820;51.098;13.716;2022-08-11T14:36:17;1.00;;;0.60;;
7557;SDS011;3820;51.098;13.716;2022-08-11T14:38:46;0.47;;;0.43;;
7557;SDS011;3820;51.098;13.716;2022-08-11T14:41:13;0.28;;;0.25;;
7557;SDS011;3820;51.098;13.716;2022-08-11T14:43:58;0.80;;;0.57;;
7557;SDS011;3820;51.098;13.716;2022-08-11T14:46:43;1.27;;;0.77;;
7557;SDS011;3820;51.098;13.716;2022-08-11T14:49:28;0.50;;;0.43;;
7557;SDS011;3820;51.098;13.716;2022-08-11T14:51:56;0.70;;;0.47;;
7557;SDS011;3820;51.098;13.716;2022-08-11T14:54:24;1.00;;;0.82;;
7557;SDS011;3820;51.098;13.716;2022-08-11T14:57:10;0.75;;;0.45;;
7557;SDS011;3820;51.098;13.716;2022-08-11T14:59:37;0.50;;;0.50;;
7557;SDS011;3820;51.098;13.716;2022-08-11T15:02:05;4.15;;;1.25;;
7557;SDS011;3820;51.098;13.716;2022-08-11T15:04:50;0.63;;;0.55;;
7557;SDS011;3820;51.098;13.716;2022-08-11T15:07:17;1.10;;;0.63;;
7557;SDS011;3820;51.098;13.716;2022-08-11T15:09:58;0.45;;;0.45;;
7557;SDS011;3820;51.098;13.716;2022-08-11T15:12:44;1.23;;;0.95;;
7557;SDS011;3820;51.098;13.716;2022-08-11T15:15:17;0.90;;;0.70;;
7557;SDS011;3820;51.098;13.716;2022-08-11T15:18:04;0.55;;;0.55;;
7557;SDS011;3820;51.098;13.716;2022-08-11T15:20:32;1.08;;;0.63;;
7557;SDS011;3820;51.098;13.716;2022-08-11T15:23:18;0.63;;;0.63;;
7557;SDS011;3820;51.098;13.716;2022-08-11T15:28:43;0.95;;;0.63;;
7557;SDS011;3820;51.098;13.716;2022-08-11T15:31:30;0.57;;;0.40;;
7557;SDS011;3820;51.098;13.716;2022-08-11T15:33:59;1.23;;;0.77;;
7557;SDS011;3820;51.098;13.716;2022-08-11T15:36:47;1.42;;;0.43;;
7557;SDS011;3820;51.098;13.716;2022-08-11T15:39:41;0.90;;;0.60;;
7557;SDS011;3820;51.098;13.716;2022-08-11T15:42:32;0.82;;;0.55;;
7557;SDS011;3820;51.098;13.716;2022-08-11T15:45:21;0.43;;;0.40;;
7557;SDS011;3820;51.098;13.716;2022-08-11T15:48:08;0.85;;;0.75;;
7557;SDS011;3820;51.098;13.716;2022-08-11T15:50:38;0.52;;;0.50;;
7557;SDS011;3820;51.098;13.716;2022-08-11T15:53:07;0.93;;;0.50;;
7557;SDS011;3820;51.098;13.716;2022-08-11T15:55:41;0.40;;;0.40;;
7557;SDS011;3820;51.098;13.716;2022-08-11T15:58:08;0.75;;;0.65;;
7557;SDS011;3820;51.098;13.716;2022-08-11T16:00:55;0.47;;;0.47;;
7557;SDS011;3820;51.098;13.716;2022-08-11T16:03:53;0.82;;;0.57;;
7557;SDS011;3820;51.098;13.716;2022-08-11T16:06:44;0.80;;;0.50;;
7557;SDS011;3820;51.098;13.716;2022-08-11T16:12:21;0.85;;;0.57;;
7557;SDS011;3820;51.098;13.716;2022-08-11T16:14:53;1.15;;;0.40;;
7557;SDS011;3820;51.098;13.716;2022-08-11T16:17:49;0.95;;;0.60;;
7557;SDS011;3820;51.098;13.716;2022-08-11T16:20:23;0.77;;;0.60;;
7557;SDS011;3820;51.098;13.716;2022-08-11T16:22:52;0.90;;;0.85;;
7557;SDS011;3820;51.098;13.716;2022-08-11T16:25:28;1.20;;;0.88;;
7557;SDS011;3820;51.098;13.716;2022-08-11T16:28:15;1.00;;;0.73;;
7557;SDS011;3820;51.098;13.716;2022-08-11T16:30:43;0.52;;;0.52;;
7557;SDS011;3820;51.098;13.716;2022-08-11T16:33:11;0.75;;;0.75;;
7557;SDS011;3820;51.098;13.716;2022-08-11T16:35:59;0.63;;;0.63;;
7557;SDS011;3820;51.098;13.716;2022-08-11T16:38:44;0.70;;;0.65;;
7557;SDS011;3820;51.098;13.716;2022-08-11T16:41:13;0.55;;;0.55;;
7557;SDS011;3820;51.098;13.716;2022-08-11T16:43:43;0.50;;;0.50;;
7557;SDS011;3820;51.098;13.716;2022-08-11T16:46:29;1.23;;;1.00;;
7557;SDS011;3820;51.098;13.716;2022-08-11T16:49:15;1.48;;;0.70;;
7557;SDS011;3820;51.098;13.716;2022-08-11T16:51:44;0.45;;;0.40;;
7557;SDS011;3820;51.098;13.716;2022-08-11T16:54:10;0.85;;;0.75;;
7557;SDS011;3820;51.098;13.716;2022-08-11T16:56:48;0.70;;;0.70;;
7557;SDS011;3820;51.098;13.716;2022-08-11T16:59:16;0.77;;;0.50;;
7557;SDS011;3820;51.098;13.716;2022-08-11T17:01:52;0.50;;;0.50;;
7557;SDS011;3820;51.098;13.716;2022-08-11T17:07:12;2.00;;;0.90;;
7557;SDS011;3820;51.098;13.716;2022-08-11T17:10:21;1.20;;;0.80;;
7557;SDS011;3820;51.098;13.716;2022-08-11T17:13:30;0.77;;;0.60;;
7557;SDS011;3820;51.098;13.716;2022-08-11T17:16:01;0.68;;;0.50;;
7557;SDS011;3820;51.098;13.716;2022-08-11T17:18:32;1.23;;;0.90;;
7557;SDS011;3820;51.098;13.716;2022-08-11T17:21:09;0.73;;;0.60;;
7557;SDS011;3820;51.098;13.716;2022-08-11T17:23:40;1.73;;;0.80;;
7557;SDS011;3820;51.098;13.716;2022-08-11T17:26:19;0.50;;;0.40;;
7557;SDS011;3820;51.098;13.716;2022-08-11T17:28:49;0.52;;;0.52;;
7557;SDS011;3820;51.098;13.716;2022-08-11T17:31:18;1.48;;;0.70;;
7557;SDS011;3820;51.098;13.716;2022-08-11T17:34:07;0.60;;;0.60;;
7557;SDS011;3820;51.098;13.716;2022-08-11T17:36:53;0.70;;;0.68;;
7557;SDS011;3820;51.098;13.716;2022-08-11T17:39:22;0.52;;;0.47;;
7557;SDS011;3820;51.098;13.716;2022-08-11T17:41:50;0.77;;;0.60;;
7557;SDS011;3820;51.098;13.716;2022-08-11T17:44:36;1.33;;;0.80;;
7557;SDS011;3820;51.098;13.716;2022-08-11T17:47:22;0.95;;;0.80;;
7557;SDS011;3820;51.098;13.716;2022-08-11T17:50:08;1.20;;;0.43;;
7557;SDS011;3820;51.098;13.716;2022-08-11T17:52:43;0.68;;;0.60;;
7557;SDS011;3820;51.098;13.716;2022-08-11T17:55:30;1.27;;;0.85;;
7557;SDS011;3820;51.098;13.716;2022-08-11T17:58:18;0.45;;;0.45;;
7557;SDS011;3820;51.098;13.716;2022-08-11T18:01:04;1.08;;;0.57;;
7557;SDS011;3820;51.098;13.716;2022-08-11T18:03:35;0.40;;;0.40;;
7557;SDS011;3820;51.098;13.716;2022-08-11T18:06:06;0.47;;;0.47;;
7557;SDS011;3820;51.098;13.716;2022-08-11T18:08:40;0.40;;;0.35;;
7557;SDS011;3820;51.098;13.716;2022-08-11T18:11:28;0.82;;;0.60;;
7557;SDS011;3820;51.098;13.716;2022-08-11T18:14:35;2.47;;;0.47;;
7557;SDS011;3820;51.098;13.716;2022-08-11T18:17:20;1.38;;;0.55;;
7557;SDS011;3820;51.098;13.716;2022-08-11T18:20:06;0.60;;;0.52;;
7557;SDS011;3820;51.098;13.716;2022-08-11T18:22:52;0.40;;;0.40;;
7557;SDS011;3820;51.098;13.716;2022-08-11T18:25:39;0.40;;;0.38;;
7557;SDS011;3820;51.098;13.716;2022-08-11T18:28:34;0.45;;;0.45;;
7557;SDS011;3820;51.098;13.716;2022-08-11T18:31:23;1.23;;;0.95;;
7557;SDS011;3820;51.098;13.716;2022-08-11T18:34:09;1.90;;;0.57;;
7557;SDS011;3820;51.098;13.716;2022-08-11T18:37:05;0.75;;;0.47;;
7557;SDS011;3820;51.098;13.716;2022-08-11T18:39:57;0.40;;;0.40;;
7557;SDS011;3820;51.098;13.716;2022-08-11T18:42:46;0.55;;;0.47;;
7557;SDS011;3820;51.098;13.716;2022-08-11T18:45:32;0.65;;;0.65;;
7557;SDS011;3820;51.098;13.716;2022-08-11T18:48:32;0.50;;;0.50;;
7557;SDS011;3820;51.098;13.716;2022-08-11T18:51:19;0.50;;;0.50;;
7557;SDS011;3820;51.098;13.716;2022-08-11T18:54:06;0.90;;;0.70;;
7557;SDS011;3820;51.098;13.716;2022-08-11T18:56:53;0.65;;;0.50;;
7557;SDS011;3820;51.098;13.716;2022-08-11T18:59:41;0.70;;;0.70;;
7557;SDS011;3820;51.098;13.716;2022-08-11T19:02:26;1.02;;;0.68;;
7557;SDS011;3820;51.098;13.716;2022-08-11T19:05:14;0.95;;;0.50;;
7557;SDS011;3820;51.098;13.716;2022-08-11T19:08:22;0.60;;;0.50;;
7557;SDS011;3820;51.098;13.716;2022-08-11T19:11:11;0.88;;;0.82;;
7557;SDS011;3820;51.098;13.716;2022-08-11T19:13:57;5.82;;;0.70;;
7557;SDS011;3820;51.098;13.716;2022-08-11T19:16:43;1.55;;;0.55;;
7557;SDS011;3820;51.098;13.716;2022-08-11T19:19:29;0.63;;;0.50;;
7557;SDS011;3820;51.098;13.716;2022-08-11T19:22:15;0.30;;;0.30;;